Time;durP1;ratioP1;P1;durP2;ratioP2;P2;SDS_P1;SDS_P2;PMS_P1;PMS_P2;Temp;Humidity;BMP_temperature;BMP_pressure;BME280_temperature;BME280_humidity;BME280_pressure;Samples;Min_cycle;Max_cycle;Signal;HPM_P1;HPM_P2
2021/05/29 00:02:13;;;;;;;9.65;7.03;;;10.00;99.90;;;;;;5054703;28;20070;-68
2021/05/29 00:04:40;;;;;;;10.65;7.75;;;10.00;99.90;;;;;;5054087;28;20052;-68
2021/05/29 00:07:06;;;;;;;10.63;9.02;;;10.00;99.90;;;;;;5054305;28;20049;-68
2021/05/29 00:09:32;;;;;;;11.05;6.68;;;10.00;99.90;;;;;;5057160;28;20063;-69
2021/05/29 00:11:57;;;;;;;11.50;7.72;;;10.00;99.90;;;;;;5057007;28;20483;-68
2021/05/29 00:14:23;;;;;;;14.75;8.73;;;9.90;99.90;;;;;;5056250;28;21092;-68
2021/05/29 00:16:49;;;;;;;16.58;9.82;;;9.90;99.90;;;;;;5056020;28;20033;-68
2021/05/29 00:19:15;;;;;;;13.35;8.95;;;9.90;99.90;;;;;;5058408;28;20067;-68
2021/05/29 00:21:41;;;;;;;12.73;9.10;;;9.80;99.90;;;;;;5056094;28;20029;-68
2021/05/29 00:24:07;;;;;;;10.65;9.40;;;9.90;99.90;;;;;;5055854;28;20489;-68
2021/05/29 00:26:33;;;;;;;7.82;7.05;;;9.80;99.90;;;;;;5053929;28;20044;-68
2021/05/29 00:28:59;;;;;;;7.40;6.13;;;9.80;99.90;;;;;;5055375;28;20044;-68
2021/05/29 00:31:24;;;;;;;10.27;7.40;;;9.70;99.90;;;;;;5054191;28;20060;-68
2021/05/29 00:33:50;;;;;;;9.00;7.15;;;9.70;99.90;;;;;;5053917;28;20059;-68
2021/05/29 00:36:16;;;;;;;10.93;7.70;;;9.70;99.90;;;;;;5055651;28;20040;-68
2021/05/29 00:38:48;;;;;;;9.38;7.25;;;9.70;99.90;;;;;;5057958;28;20479;-68
2021/05/29 00:41:15;;;;;;;9.38;7.50;;;9.60;99.90;;;;;;5052512;28;20403;-68
2021/05/29 00:43:41;;;;;;;11.65;7.75;;;9.60;99.90;;;;;;5053898;28;20071;-68
2021/05/29 00:46:07;;;;;;;11.50;7.88;;;9.60;99.90;;;;;;5056022;28;20036;-68
2021/05/29 00:48:34;;;;;;;8.88;7.40;;;9.50;99.90;;;;;;5056860;28;20044;-68
2021/05/29 00:51:00;;;;;;;9.02;7.53;;;9.50;99.90;;;;;;5054135;28;20040;-68
2021/05/29 00:53:28;;;;;;;7.70;6.45;;;9.50;99.90;;;;;;5053753;28;20044;-68
2021/05/29 00:55:55;;;;;;;9.68;8.30;;;9.50;99.90;;;;;;5057038;28;20040;-68
2021/05/29 00:58:21;;;;;;;11.45;9.05;;;9.50;99.90;;;;;;5054641;28;20129;-68
2021/05/29 01:00:48;;;;;;;14.05;10.02;;;9.50;99.90;;;;;;5055274;28;20117;-68
2021/05/29 01:03:15;;;;;;;11.07;8.40;;;9.50;99.90;;;;;;5055245;28;20067;-68
2021/05/29 01:05:41;;;;;;;9.32;8.32;;;9.40;99.90;;;;;;5056425;28;21023;-68
2021/05/29 01:08:06;;;;;;;8.68;7.47;;;9.40;99.90;;;;;;5052690;28;20056;-68
2021/05/29 01:10:33;;;;;;;13.80;9.02;;;9.40;99.90;;;;;;5055545;28;20486;-68
2021/05/29 01:13:00;;;;;;;13.63;10.30;;;9.40;99.90;;;;;;5056588;28;20155;-68
2021/05/29 01:15:33;;;;;;;15.60;10.57;;;9.40;99.90;;;;;;5056997;28;20128;-68
2021/05/29 01:17:58;;;;;;;11.80;9.05;;;9.40;99.90;;;;;;5054439;28;20045;-68
2021/05/29 01:20:24;;;;;;;16.15;11.25;;;9.40;99.90;;;;;;5053047;28;20067;-68
2021/05/29 01:22:52;;;;;;;14.05;11.25;;;9.50;99.90;;;;;;5060015;28;20093;-68
2021/05/29 01:25:24;;;;;;;16.40;12.18;;;9.40;99.90;;;;;;5054966;28;20056;-68
2021/05/29 01:27:56;;;;;;;19.48;11.68;;;9.50;99.90;;;;;;5059094;28;21388;-68
2021/05/29 01:30:22;;;;;;;17.30;12.80;;;9.50;99.90;;;;;;5057833;28;20090;-68
2021/05/29 01:32:48;;;;;;;16.20;12.13;;;9.60;99.90;;;;;;5057752;28;20565;-68
2021/05/29 01:35:14;;;;;;;19.08;12.07;;;9.60;99.90;;;;;;5060294;28;20615;-68
2021/05/29 01:37:40;;;;;;;12.75;11.38;;;9.60;99.90;;;;;;5058499;28;20041;-68
2021/05/29 01:40:06;;;;;;;16.67;10.10;;;9.70;99.90;;;;;;5056670;28;20420;-68
2021/05/29 01:42:33;;;;;;;10.93;9.55;;;9.70;99.90;;;;;;5057147;28;20037;-68
2021/05/29 01:45:01;;;;;;;10.18;8.85;;;9.70;99.90;;;;;;5058344;28;20167;-68
2021/05/29 01:47:27;;;;;;;10.35;8.63;;;9.70;99.90;;;;;;5056293;28;20044;-68
2021/05/29 01:49:52;;;;;;;10.93;9.35;;;9.70;99.90;;;;;;5055522;28;20028;-68
2021/05/29 01:52:18;;;;;;;14.90;12.27;;;9.80;99.90;;;;;;5057637;28;20479;-68
2021/05/29 01:54:44;;;;;;;17.55;12.93;;;9.80;99.90;;;;;;5058874;28;20056;-68
2021/05/29 01:57:10;;;;;;;16.52;12.68;;;9.80;99.90;;;;;;5060148;28;20044;-68
2021/05/29 01:59:36;;;;;;;14.65;12.52;;;9.80;99.90;;;;;;5060231;28;20047;-68
2021/05/29 02:02:01;;;;;;;21.40;13.45;;;9.80;99.90;;;;;;5053049;28;20071;-68
2021/05/29 02:04:27;;;;;;;21.58;13.48;;;9.80;99.90;;;;;;5059089;28;20084;-68
2021/05/29 02:06:53;;;;;;;16.52;13.48;;;9.80;99.90;;;;;;5056735;28;20041;-68
2021/05/29 02:09:19;;;;;;;16.98;13.48;;;9.80;99.90;;;;;;5060954;28;20441;-68
2021/05/29 02:11:45;;;;;;;21.73;15.10;;;9.90;99.90;;;;;;5056919;28;20041;-68
2021/05/29 02:14:11;;;;;;;18.10;14.48;;;9.80;99.90;;;;;;5058050;28;20487;-68
2021/05/29 02:16:36;;;;;;;19.40;14.38;;;9.80;99.90;;;;;;5058738;28;20498;-68
2021/05/29 02:19:02;;;;;;;18.48;15.27;;;9.80;99.90;;;;;;5058139;28;20047;-68
2021/05/29 02:21:28;;;;;;;18.27;14.10;;;9.80;99.90;;;;;;5058372;28;20445;-68
2021/05/29 02:23:53;;;;;;;13.77;12.40;;;9.80;99.90;;;;;;5058151;28;20036;-68
2021/05/29 02:26:21;;;;;;;15.63;13.02;;;9.80;99.90;;;;;;5060820;28;20041;-68
2021/05/29 02:28:55;;;;;;;17.50;12.55;;;9.80;99.90;;;;;;5062448;28;20495;-68
2021/05/29 02:31:21;;;;;;;15.35;12.30;;;9.70;99.90;;;;;;5064646;28;20033;-68
2021/05/29 02:33:48;;;;;;;17.88;12.00;;;9.70;99.90;;;;;;5062324;28;20510;-68
2021/05/29 02:36:15;;;;;;;12.73;11.48;;;9.60;99.90;;;;;;5062306;28;20695;-68
2021/05/29 02:38:41;;;;;;;13.32;11.93;;;9.60;99.90;;;;;;5061079;28;20717;-68
2021/05/29 02:41:10;;;;;;;18.02;12.90;;;9.60;99.90;;;;;;5059398;28;20042;-68
2021/05/29 02:43:37;;;;;;;13.68;11.40;;;9.60;99.90;;;;;;5063934;28;20056;-68
2021/05/29 02:46:03;;;;;;;16.35;12.93;;;9.50;99.90;;;;;;5066854;28;20047;-67
2021/05/29 02:48:28;;;;;;;12.30;11.00;;;9.50;99.90;;;;;;5068188;28;20048;-68
2021/05/29 02:50:54;;;;;;;14.52;11.48;;;9.50;99.90;;;;;;5064700;28;20040;-68
2021/05/29 02:53:21;;;;;;;14.20;12.13;;;9.50;99.90;;;;;;5062325;28;20032;-68
2021/05/29 02:55:47;;;;;;;11.77;10.57;;;9.50;99.90;;;;;;5067622;28;20109;-67
2021/05/29 02:58:13;;;;;;;13.77;11.57;;;9.40;99.90;;;;;;5061218;28;20545;-68
2021/05/29 03:00:42;;;;;;;13.30;11.90;;;9.40;99.90;;;;;;5064174;28;20514;-68
2021/05/29 03:03:08;;;;;;;16.08;12.93;;;9.40;99.90;;;;;;5059844;28;20041;-68
2021/05/29 03:05:36;;;;;;;15.82;11.98;;;9.40;99.90;;;;;;5062867;28;20059;-68
2021/05/29 03:08:02;;;;;;;12.43;11.07;;;9.30;99.90;;;;;;5061091;28;20036;-68
2021/05/29 03:10:27;;;;;;;12.40;10.10;;;9.30;99.90;;;;;;5065079;28;20045;-68
2021/05/29 03:12:54;;;;;;;11.10;10.05;;;9.30;99.90;;;;;;5059126;28;20453;-68
2021/05/29 03:15:23;;;;;;;10.00;9.07;;;9.30;99.90;;;;;;5057656;28;20063;-68
2021/05/29 03:17:50;;;;;;;7.50;6.57;;;9.30;99.90;;;;;;5057078;28;20043;-68
2021/05/29 03:20:19;;;;;;;4.53;4.15;;;9.20;99.90;;;;;;5056324;28;20094;-68
2021/05/29 03:22:45;;;;;;;4.45;4.05;;;9.20;99.90;;;;;;5056460;28;20839;-68
2021/05/29 03:25:12;;;;;;;7.28;6.07;;;9.20;99.90;;;;;;5057072;28;20032;-68
2021/05/29 03:27:38;;;;;;;9.68;8.80;;;9.10;99.90;;;;;;5055124;28;20036;-68
2021/05/29 03:30:06;;;;;;;16.45;12.98;;;9.20;99.90;;;;;;5056708;28;20036;-68
2021/05/29 03:32:32;;;;;;;15.63;12.07;;;9.20;99.90;;;;;;5052835;28;20039;-68
2021/05/29 03:34:58;;;;;;;15.35;13.15;;;9.10;99.90;;;;;;5058114;28;20414;-68
2021/05/29 03:37:23;;;;;;;18.13;14.57;;;9.10;99.90;;;;;;5055855;28;20458;-68
2021/05/29 03:39:49;;;;;;;14.27;12.50;;;9.20;99.90;;;;;;5055000;28;20135;-68
2021/05/29 03:42:15;;;;;;;14.40;12.43;;;9.20;99.90;;;;;;5055794;28;20048;-68
2021/05/29 03:44:41;;;;;;;24.38;17.05;;;9.20;99.90;;;;;;5054636;28;20029;-68
2021/05/29 03:47:07;;;;;;;18.23;13.82;;;9.30;99.90;;;;;;5053484;28;20087;-68
2021/05/29 03:49:33;;;;;;;16.63;13.63;;;9.30;99.90;;;;;;5058619;28;20478;-68
2021/05/29 03:51:59;;;;;;;22.30;16.00;;;9.30;99.90;;;;;;5054398;28;21528;-68
2021/05/29 03:54:25;;;;;;;17.05;15.25;;;9.30;99.90;;;;;;5056520;28;20474;-68
2021/05/29 03:56:51;;;;;;;24.00;14.88;;;9.40;99.90;;;;;;5058605;28;20090;-68
2021/05/29 03:59:17;;;;;;;20.13;16.23;;;9.40;99.90;;;;;;5054920;28;20044;-68
2021/05/29 04:01:43;;;;;;;18.17;14.60;;;9.50;99.90;;;;;;5057187;28;20540;-68
2021/05/29 04:04:10;;;;;;;17.88;14.43;;;9.50;99.90;;;;;;5056688;28;20052;-68
2021/05/29 04:06:37;;;;;;;21.00;15.85;;;9.60;99.90;;;;;;5057055;28;20049;-68
2021/05/29 04:09:04;;;;;;;17.40;14.98;;;9.60;99.90;;;;;;5057870;28;20454;-68
2021/05/29 04:11:36;;;;;;;21.35;15.52;;;9.60;99.90;;;;;;5056764;28;20044;-68
2021/05/29 04:14:04;;;;;;;18.23;15.15;;;9.70;99.90;;;;;;5053237;28;20059;-68
2021/05/29 04:16:30;;;;;;;21.10;16.77;;;9.70;99.90;;;;;;5055643;28;20040;-68
2021/05/29 04:18:58;;;;;;;20.65;17.95;;;9.80;99.90;;;;;;5055518;28;20045;-68
2021/05/29 04:21:24;;;;;;;16.67;14.45;;;9.90;99.90;;;;;;5055985;28;20047;-68
2021/05/29 04:23:50;;;;;;;17.35;14.82;;;9.90;99.90;;;;;;5087424;28;20511;-68
2021/05/29 04:26:16;;;;;;;21.73;16.83;;;10.00;99.90;;;;;;5056659;28;20064;-68
2021/05/29 04:28:41;;;;;;;22.33;15.95;;;10.00;99.90;;;;;;5055073;28;20041;-68
2021/05/29 04:31:07;;;;;;;21.55;15.73;;;10.00;99.90;;;;;;5056498;28;20483;-68
2021/05/29 04:33:33;;;;;;;20.05;15.45;;;10.10;99.90;;;;;;5050604;28;20037;-68
2021/05/29 04:35:59;;;;;;;22.77;16.48;;;10.10;99.90;;;;;;5049888;28;20033;-68
2021/05/29 04:38:26;;;;;;;21.80;15.77;;;10.20;99.90;;;;;;5047575;28;20048;-68
2021/05/29 04:40:52;;;;;;;19.40;15.48;;;10.20;99.90;;;;;;5049493;28;20381;-68
2021/05/29 04:43:18;;;;;;;18.25;15.35;;;10.20;99.90;;;;;;5048524;28;20506;-68
2021/05/29 04:45:44;;;;;;;20.52;15.52;;;10.30;99.90;;;;;;5049028;28;20123;-68
2021/05/29 04:48:10;;;;;;;20.77;16.05;;;10.40;99.90;;;;;;5049844;28;20197;-68
2021/05/29 04:51:11;;;;;;;18.92;15.63;;;10.40;99.90;;;;;;5052610;28;20063;-68
2021/05/29 04:53:23;;;;;;;18.40;14.82;;;10.40;99.90;;;;;;5054166;28;20041;-68
2021/05/29 04:55:49;;;;;;;19.65;16.77;;;10.40;99.90;;;;;;5058951;28;20442;-68
2021/05/29 04:58:16;;;;;;;24.25;16.65;;;10.50;99.90;;;;;;5063480;28;20037;-68
2021/05/29 05:00:42;;;;;;;18.02;14.93;;;10.50;99.90;;;;;;5059798;28;20484;-68
2021/05/29 05:03:07;;;;;;;20.10;16.40;;;10.50;99.90;;;;;;5063954;28;20040;-68
2021/05/29 05:05:33;;;;;;;21.08;15.35;;;10.60;99.90;;;;;;5058464;28;20082;-68
2021/05/29 05:07:59;;;;;;;19.95;16.63;;;10.60;99.90;;;;;;5066263;28;20388;-68
2021/05/29 05:10:25;;;;;;;21.40;16.42;;;10.70;99.90;;;;;;5059639;28;20041;-68
2021/05/29 05:12:51;;;;;;;22.90;16.85;;;10.70;99.90;;;;;;5063194;28;20044;-68
2021/05/29 05:15:16;;;;;;;22.05;16.25;;;10.80;99.90;;;;;;5062930;28;20123;-68
2021/05/29 05:17:42;;;;;;;19.88;16.80;;;10.80;99.90;;;;;;5062557;28;20036;-68
2021/05/29 05:20:09;;;;;;;21.70;17.05;;;10.90;99.90;;;;;;5064793;28;20033;-68
2021/05/29 05:22:35;;;;;;;22.42;17.10;;;10.90;99.90;;;;;;5092716;27;20513;-68
2021/05/29 05:25:02;;;;;;;19.55;17.23;;;10.90;99.90;;;;;;5058764;28;20036;-68
2021/05/29 05:27:28;;;;;;;21.13;17.70;;;11.10;99.90;;;;;;5060113;28;20040;-68
2021/05/29 05:29:53;;;;;;;19.98;15.75;;;11.10;99.90;;;;;;5056916;28;20044;-68
2021/05/29 05:32:21;;;;;;;19.48;16.92;;;11.10;99.90;;;;;;5056907;28;20049;-68
2021/05/29 05:34:46;;;;;;;19.60;16.58;;;11.20;99.90;;;;;;5060078;28;20056;-68
2021/05/29 05:37:12;;;;;;;19.33;16.83;;;11.30;99.90;;;;;;5059426;28;20375;-68
2021/05/29 05:39:38;;;;;;;20.67;17.20;;;11.40;99.90;;;;;;5058248;28;20491;-68
2021/05/29 05:42:04;;;;;;;20.80;15.77;;;11.40;99.90;;;;;;5060961;28;20036;-68
2021/05/29 05:44:30;;;;;;;22.13;17.92;;;11.50;99.90;;;;;;5056772;28;20043;-68
2021/05/29 05:46:56;;;;;;;17.90;15.90;;;11.50;99.90;;;;;;5058977;28;20029;-68
2021/05/29 05:49:22;;;;;;;20.52;16.60;;;11.60;99.90;;;;;;5060028;28;20513;-67
2021/05/29 05:51:47;;;;;;;27.25;18.80;;;11.70;99.90;;;;;;5054669;28;20119;-68
2021/05/29 05:54:13;;;;;;;19.02;17.02;;;11.70;99.90;;;;;;5056731;28;20048;-68
2021/05/29 05:56:38;;;;;;;25.77;18.80;;;11.80;99.90;;;;;;5059820;28;20049;-68
2021/05/29 05:59:05;;;;;;;20.50;18.00;;;11.80;99.90;;;;;;5057675;28;20044;-69
2021/05/29 06:01:31;;;;;;;20.85;18.27;;;11.90;99.90;;;;;;5053651;28;20040;-68
2021/05/29 06:03:57;;;;;;;21.20;17.48;;;11.90;99.90;;;;;;5056273;28;20628;-68
2021/05/29 06:06:23;;;;;;;22.20;18.58;;;12.00;99.90;;;;;;5056378;28;20050;-67
2021/05/29 06:08:49;;;;;;;25.88;17.85;;;12.10;99.90;;;;;;5056587;28;20037;-68
2021/05/29 06:11:15;;;;;;;21.85;16.67;;;12.10;99.90;;;;;;5059281;28;21049;-68
2021/05/29 06:21:36;;;;;;;19.75;16.42;;;12.50;99.90;;;;;;5056010;28;20139;-68
2021/05/29 06:24:02;;;;;;;21.50;16.40;;;12.50;99.90;;;;;;5056079;28;20041;-68
2021/05/29 06:26:28;;;;;;;20.70;15.52;;;12.60;99.90;;;;;;5058396;28;20143;-68
2021/05/29 06:28:54;;;;;;;18.67;14.75;;;12.70;99.90;;;;;;5057047;28;20166;-68
2021/05/29 06:31:19;;;;;;;16.98;15.18;;;12.80;99.90;;;;;;5058615;28;20047;-68
2021/05/29 06:33:45;;;;;;;17.27;15.43;;;12.80;99.90;;;;;;5053989;28;20391;-68
2021/05/29 06:36:11;;;;;;;17.92;15.95;;;12.90;99.90;;;;;;5058184;28;20635;-68
2021/05/29 06:38:37;;;;;;;22.15;16.48;;;12.90;99.90;;;;;;5057146;28;20076;-68
2021/05/29 06:41:03;;;;;;;21.60;16.15;;;13.00;99.90;;;;;;5058378;28;20063;-68
2021/05/29 06:43:29;;;;;;;19.73;14.55;;;13.00;99.90;;;;;;5057323;28;20044;-68
2021/05/29 06:45:55;;;;;;;19.38;15.05;;;13.10;99.90;;;;;;5057502;28;20114;-68
2021/05/29 06:48:21;;;;;;;24.70;16.95;;;13.20;99.90;;;;;;5056652;28;20028;-68
2021/05/29 06:50:49;;;;;;;20.05;16.48;;;13.20;99.90;;;;;;5057352;28;20062;-68
2021/05/29 06:53:19;;;;;;;18.15;15.50;;;13.30;99.90;;;;;;5056717;28;20052;-68
2021/05/29 06:59:03;;;;;;;25.08;15.88;;;13.40;99.90;;;;;;5056867;28;20918;-68
2021/05/29 07:01:23;;;;;;;16.58;14.55;;;13.30;99.90;;;;;;5061439;28;20722;-68
2021/05/29 07:03:50;;;;;;;17.10;15.30;;;13.40;99.90;;;;;;5064849;28;20044;-68
2021/05/29 07:06:16;;;;;;;16.23;14.52;;;13.50;99.90;;;;;;5062822;28;20037;-68
2021/05/29 07:08:42;;;;;;;18.48;14.32;;;13.50;99.90;;;;;;5064794;28;20397;-68
2021/05/29 07:11:09;;;;;;;19.35;15.90;;;13.50;99.90;;;;;;5063573;28;20107;-68
2021/05/29 07:13:35;;;;;;;17.45;15.55;;;13.50;99.90;;;;;;5065999;28;20075;-68
2021/05/29 07:16:01;;;;;;;17.10;15.13;;;13.50;99.90;;;;;;5062479;28;20036;-68
2021/05/29 07:19:00;;;;;;;17.00;15.32;;;13.50;99.90;;;;;;5064190;28;20086;-68
2021/05/29 07:21:19;;;;;;;16.83;15.00;;;13.50;99.90;;;;;;5061624;28;20111;-68
2021/05/29 07:23:45;;;;;;;17.10;13.40;;;13.60;99.90;;;;;;5064960;28;20131;-68
2021/05/29 07:26:12;;;;;;;17.05;13.65;;;13.50;99.90;;;;;;5064566;28;20425;-68
2021/05/29 07:28:38;;;;;;;17.10;13.73;;;13.60;99.90;;;;;;5063534;28;20045;-68
2021/05/29 07:31:04;;;;;;;16.50;14.20;;;13.60;99.90;;;;;;5063711;28;20063;-68
2021/05/29 07:33:30;;;;;;;18.95;13.90;;;13.60;99.90;;;;;;5063139;28;20052;-68
2021/05/29 07:35:56;;;;;;;24.50;14.20;;;13.70;99.90;;;;;;5061683;28;20916;-68
2021/05/29 07:38:22;;;;;;;16.05;14.38;;;13.70;99.90;;;;;;5064481;28;20111;-68
2021/05/29 07:40:49;;;;;;;20.00;14.90;;;13.70;99.90;;;;;;5065545;28;20120;-68
2021/05/29 07:43:16;;;;;;;15.18;13.57;;;13.80;99.90;;;;;;5062297;22;20061;-84
2021/05/29 07:45:42;;;;;;;15.18;12.05;;;13.90;99.90;;;;;;5027789;28;20040;-83
2021/05/29 07:55:36;;;;;;;17.00;12.02;;;14.20;99.90;;;;;;5046977;28;20092;-83
2021/05/29 07:58:03;;;;;;;13.35;10.73;;;14.30;99.90;;;;;;5047771;28;20550;-84
2021/05/29 08:04:28;;;;;;;15.32;11.73;;;14.40;99.90;;;;;;5050624;28;20094;-83
2021/05/29 08:06:54;;;;;;;12.82;10.73;;;14.50;99.90;;;;;;5030148;28;20040;-83
2021/05/29 08:09:20;;;;;;;13.35;10.32;;;14.50;99.90;;;;;;5048416;28;20047;-86
2021/05/29 08:11:46;;;;;;;13.43;9.90;;;14.60;99.90;;;;;;5050850;28;20044;-86
2021/05/29 08:14:12;;;;;;;12.93;10.18;;;14.80;99.90;;;;;;5045788;28;21170;-85
2021/05/29 08:16:40;;;;;;;16.60;9.77;;;14.90;99.90;;;;;;5041151;28;20075;-84
2021/05/29 08:19:11;;;;;;;13.30;9.02;;;15.00;99.90;;;;;;5039058;28;20155;-83
2021/05/29 08:21:41;;;;;;;11.52;9.65;;;15.10;99.90;;;;;;5039283;28;20051;-84
2021/05/29 08:24:07;;;;;;;12.82;9.15;;;15.20;99.90;;;;;;5020555;28;20745;-87
2021/05/29 08:26:35;;;;;;;12.25;9.25;;;15.20;99.80;;;;;;5039020;28;20041;-82
2021/05/29 08:29:05;;;;;;;13.43;9.65;;;15.20;99.50;;;;;;5026626;28;20041;-85
2021/05/29 08:32:45;;;;;;;13.30;9.20;;;15.30;99.30;;;;;;4970659;28;20057;-86
2021/05/29 08:35:11;;;;;;;10.57;8.48;;;15.30;99.00;;;;;;4965976;28;20115;-85
2021/05/29 08:37:41;;;;;;;11.43;8.65;;;15.30;99.00;;;;;;4966822;28;20503;-85
2021/05/29 08:40:10;;;;;;;9.70;8.63;;;15.40;98.90;;;;;;5005961;28;20568;-88
2021/05/29 08:42:43;;;;;;;11.43;8.32;;;15.60;99.00;;;;;;5046156;28;20495;-88
2021/05/29 08:45:09;;;;;;;11.15;9.98;;;16.10;98.80;;;;;;5036782;28;20044;-88
2021/05/29 08:47:35;;;;;;;11.82;10.40;;;16.30;98.10;;;;;;5026562;28;21145;-88
2021/05/29 08:50:05;;;;;;;10.48;8.70;;;16.40;97.50;;;;;;5045332;28;20064;-88
2021/05/29 08:52:36;;;;;;;10.15;8.57;;;16.50;96.10;;;;;;5046822;28;20032;-87
2021/05/29 08:55:06;;;;;;;7.40;6.75;;;16.60;96.30;;;;;;5048678;28;20073;-85
2021/05/29 08:57:35;;;;;;;9.40;8.40;;;16.80;96.40;;;;;;5034215;28;20032;-87
2021/05/29 09:00:01;;;;;;;10.40;9.30;;;17.00;95.90;;;;;;5046887;28;20070;-86
2021/05/29 09:02:28;;;;;;;12.00;9.68;;;16.80;95.60;;;;;;5044558;28;20033;-85
2021/05/29 09:05:08;;;;;;;12.90;9.13;;;16.60;94.80;;;;;;5041973;28;20037;-87
2021/05/29 09:07:34;;;;;;;12.80;10.40;;;16.60;95.50;;;;;;5047663;28;20044;-86
2021/05/29 09:10:21;;;;;;;12.13;10.20;;;16.50;95.70;;;;;;5043822;28;20037;-86
2021/05/29 09:13:08;;;;;;;11.35;9.00;;;16.50;95.40;;;;;;5047256;28;20032;-86
2021/05/29 09:15:52;;;;;;;11.77;8.95;;;16.50;95.70;;;;;;5050862;28;20513;-86
2021/05/29 09:18:48;;;;;;;11.95;8.95;;;16.50;96.00;;;;;;5050633;28;20032;-87
2021/05/29 09:21:39;;;;;;;10.32;9.27;;;16.60;96.40;;;;;;5025638;28;20047;-85
2021/05/29 09:24:16;;;;;;;10.35;8.95;;;16.60;95.00;;;;;;5046340;28;20053;-88
2021/05/29 09:26:54;;;;;;;9.90;8.20;;;16.70;95.60;;;;;;5025653;28;20156;-86
2021/05/29 09:29:25;;;;;;;9.80;8.80;;;16.80;95.40;;;;;;5042659;28;20072;-88
2021/05/29 09:32:04;;;;;;;10.95;9.45;;;17.10;95.60;;;;;;5045246;28;20033;-87
2021/05/29 09:34:46;;;;;;;13.25;9.02;;;17.10;95.40;;;;;;5027216;28;20570;-85
2021/05/29 09:37:28;;;;;;;11.60;8.43;;;17.60;94.70;;;;;;5045312;28;20117;-85
2021/05/29 09:39:56;;;;;;;9.82;7.32;;;17.60;94.30;;;;;;5043201;28;20535;-88
2021/05/29 09:42:40;;;;;;;13.88;7.32;;;17.70;94.50;;;;;;5024763;28;20036;-85
2021/05/29 09:45:21;;;;;;;10.38;7.07;;;17.80;94.30;;;;;;5051697;28;20037;-85
2021/05/29 09:48:37;;;;;;;8.35;7.18;;;17.70;94.00;;;;;;5047281;28;20068;-87
2021/05/29 09:51:33;;;;;;;8.40;6.95;;;17.70;93.90;;;;;;5010494;28;20033;-84
2021/05/29 10:16:17;;;;;;;10.70;5.50;;;18.00;88.30;;;;;;4986394;28;20040;-85
2021/05/29 10:19:40;;;;;;;10.65;6.07;;;18.00;90.40;;;;;;4984862;28;20053;-84
2021/05/29 10:22:08;;;;;;;8.30;5.93;;;17.90;91.00;;;;;;4992314;28;20052;-86
2021/05/29 10:24:37;;;;;;;9.30;6.18;;;17.80;91.30;;;;;;5044307;28;20046;-86
2021/05/29 10:27:20;;;;;;;9.43;5.38;;;17.80;92.10;;;;;;5046425;28;20041;-86
2021/05/29 10:29:46;;;;;;;9.75;5.72;;;18.00;93.20;;;;;;5026362;28;20041;-83
2021/05/29 10:32:14;;;;;;;6.70;5.10;;;18.40;93.20;;;;;;5021906;28;20060;-84
2021/05/29 10:35:00;;;;;;;6.05;4.60;;;18.60;92.30;;;;;;5026360;28;20047;-83
2021/05/29 10:38:26;;;;;;;8.15;5.05;;;18.60;90.50;;;;;;5037860;28;20071;-84
2021/05/29 10:45:10;;;;;;;6.32;3.70;;;18.00;90.30;;;;;;5001304;28;20900;-85
2021/05/29 11:40:34;;;;;;;6.68;3.53;;;17.80;85.10;;;;;;5002841;28;20052;-89
2021/05/29 11:51:36;;;;;;;6.82;3.80;;;18.90;87.10;;;;;;4947057;28;20122;-88
2021/05/29 11:54:41;;;;;;;8.88;3.80;;;18.70;89.00;;;;;;4924989;28;20739;-87
2021/05/29 11:57:07;;;;;;;6.78;3.58;;;18.60;87.60;;;;;;4947712;28;20418;-85
2021/05/29 11:59:33;;;;;;;6.75;3.65;;;18.30;86.90;;;;;;4957203;28;20054;-84
2021/05/29 12:01:58;;;;;;;7.00;3.40;;;18.30;89.60;;;;;;5038024;28;20110;-87
2021/05/29 12:04:29;;;;;;;6.85;3.10;;;18.50;90.00;;;;;;5047484;28;20037;-88
2021/05/29 12:06:59;;;;;;;8.00;4.45;;;18.80;90.10;;;;;;5042263;28;20045;-85
2021/05/29 12:09:26;;;;;;;7.40;3.53;;;18.40;90.30;;;;;;5043424;28;20041;-87
2021/05/29 12:11:54;;;;;;;4.78;3.38;;;18.40;90.90;;;;;;5028319;28;20029;-86
2021/05/29 12:15:12;;;;;;;5.60;3.40;;;18.30;91.70;;;;;;5045386;28;20036;-85
2021/05/29 12:37:42;;;;;;;5.55;3.25;;;18.00;90.60;;;;;;4951774;28;20097;-84
2021/05/29 12:48:14;;;;;;;6.07;3.95;;;17.90;91.70;;;;;;4910952;29;20071;-87
2021/05/29 12:51:19;;;;;;;5.10;2.92;;;18.40;91.00;;;;;;4918619;29;20461;-86
2021/05/29 12:53:51;;;;;;;5.78;3.42;;;18.50;90.50;;;;;;4952124;28;20059;-87
2021/05/29 12:56:19;;;;;;;6.32;3.30;;;18.40;86.70;;;;;;5006004;28;20048;-86
2021/05/29 12:59:06;;;;;;;7.28;3.65;;;18.40;89.10;;;;;;5042518;28;20053;-88
2021/05/29 13:17:10;;;;;;;7.60;4.63;;;17.60;91.80;;;;;;5004176;28;20119;-82
2021/05/29 13:50:46;;;;;;;7.82;4.68;;;16.90;93.10;;;;;;4927082;29;20188;-86
2021/05/29 13:57:57;;;;;;;6.28;3.55;;;17.80;94.00;;;;;;4726362;30;20426;-88
2021/05/29 14:00:25;;;;;;;4.80;3.53;;;18.20;93.60;;;;;;4723773;29;20055;-87
2021/05/29 14:02:52;;;;;;;5.85;4.03;;;18.50;93.20;;;;;;4841445;29;20053;-87
2021/05/29 14:05:17;;;;;;;6.15;3.35;;;18.60;90.90;;;;;;5023362;28;20071;-87
2021/05/29 14:07:43;;;;;;;6.65;3.20;;;18.70;89.40;;;;;;5055074;28;20499;-86
2021/05/29 14:10:10;;;;;;;8.40;3.85;;;18.80;90.30;;;;;;5047697;28;20040;-89
2021/05/29 14:12:36;;;;;;;4.07;2.85;;;18.80;90.80;;;;;;5022044;28;20048;-85
2021/05/29 14:15:04;;;;;;;5.45;3.13;;;19.00;90.50;;;;;;5050378;28;20045;-86
2021/05/29 14:17:30;;;;;;;6.35;3.67;;;18.70;90.10;;;;;;5046903;28;20056;-85
2021/05/29 14:19:56;;;;;;;7.13;2.47;;;18.70;90.30;;;;;;5046296;28;20106;-85
2021/05/29 14:22:21;;;;;;;4.43;2.80;;;18.60;90.30;;;;;;5052114;28;20025;-87
2021/05/29 14:24:47;;;;;;;4.40;2.95;;;18.50;88.60;;;;;;5045167;28;20033;-86
2021/05/29 14:27:12;;;;;;;4.03;2.60;;;18.60;90.70;;;;;;5044997;28;20043;-87
2021/05/29 14:29:38;;;;;;;5.40;2.80;;;18.80;92.20;;;;;;5053950;28;21637;-87
2021/05/29 14:32:05;;;;;;;4.72;3.05;;;19.00;92.30;;;;;;5031876;28;20037;-88
2021/05/29 14:34:34;;;;;;;5.13;3.05;;;19.30;91.70;;;;;;5033617;28;20036;-87
2021/05/29 14:36:59;;;;;;;6.88;3.00;;;19.40;88.10;;;;;;5024626;28;20077;-87
2021/05/29 14:39:25;;;;;;;5.18;2.42;;;19.30;91.30;;;;;;5046134;28;20045;-86
2021/05/29 14:41:51;;;;;;;3.95;2.70;;;19.30;90.50;;;;;;5046600;28;20029;-86
2021/05/29 14:44:17;;;;;;;5.72;2.42;;;18.90;87.20;;;;;;5027549;28;20037;-86
2021/05/29 14:46:45;;;;;;;5.32;2.60;;;18.80;84.70;;;;;;5030467;28;20159;-86
2021/05/29 14:49:11;;;;;;;5.97;2.78;;;18.70;90.70;;;;;;5048227;28;20546;-87
2021/05/29 14:51:37;;;;;;;4.43;2.75;;;18.60;89.50;;;;;;5046063;28;20036;-86
2021/05/29 14:54:04;;;;;;;5.40;3.25;;;18.80;91.20;;;;;;5043989;28;20041;-87
2021/05/29 14:56:33;;;;;;;3.63;2.60;;;18.70;91.40;;;;;;5047541;28;20037;-87
2021/05/29 14:58:59;;;;;;;4.50;2.80;;;18.80;91.70;;;;;;5045218;28;20041;-86
2021/05/29 15:01:27;;;;;;;7.57;2.67;;;19.00;91.30;;;;;;5043927;28;20041;-86
2021/05/29 15:03:55;;;;;;;5.57;3.35;;;19.10;91.40;;;;;;5028642;28;20124;-87
2021/05/29 15:10:46;;;;;;;5.85;2.97;;;19.10;90.90;;;;;;5047061;28;20036;-86
2021/05/29 15:25:26;;;;;;;4.90;2.83;;;18.40;89.90;;;;;;5042134;28;20166;-83
2021/05/29 15:47:14;;;;;;;4.80;2.92;;;17.50;91.60;;;;;;4965112;28;20433;-87
2021/05/29 16:16:42;;;;;;;4.53;2.55;;;17.20;93.00;;;;;;5045324;28;20462;-85
2021/05/29 16:27:38;;;;;;;9.35;3.20;;;17.30;92.30;;;;;;5041952;28;20124;-85
2021/05/29 16:30:05;;;;;;;4.32;2.47;;;17.30;92.60;;;;;;4982855;28;20424;-86
2021/05/29 16:32:33;;;;;;;4.40;2.85;;;17.20;92.50;;;;;;5044909;28;20111;-86
2021/05/29 16:35:09;;;;;;;4.50;2.42;;;17.20;92.20;;;;;;5029088;28;20060;-85
2021/05/29 16:38:28;;;;;;;4.90;2.67;;;17.20;92.60;;;;;;4986809;28;20542;-86
2021/05/29 16:41:32;;;;;;;7.03;2.95;;;17.00;92.20;;;;;;4976840;28;20603;-82
2021/05/29 16:43:58;;;;;;;4.63;2.55;;;16.70;91.20;;;;;;5029173;28;20144;-82
2021/05/29 16:46:25;;;;;;;7.70;2.75;;;16.60;91.20;;;;;;5025521;28;20043;-82
2021/05/29 16:48:51;;;;;;;4.63;2.50;;;16.60;92.50;;;;;;5014811;28;20098;-83
2021/05/29 16:51:25;;;;;;;4.28;2.60;;;16.60;92.70;;;;;;5044936;28;20093;-82
2021/05/29 16:54:09;;;;;;;3.65;2.83;;;16.50;92.40;;;;;;5047975;28;20525;-84
2021/05/29 16:56:36;;;;;;;4.10;2.75;;;16.50;92.90;;;;;;5029171;28;21597;-81
2021/05/29 16:59:21;;;;;;;4.63;3.38;;;16.50;92.80;;;;;;5035063;28;20422;-86
2021/05/29 17:01:46;;;;;;;5.10;3.67;;;16.60;91.40;;;;;;5032456;28;20105;-85
2021/05/29 17:04:12;;;;;;;4.53;3.03;;;16.20;91.90;;;;;;5049291;28;20530;-85
2021/05/29 17:06:40;;;;;;;5.38;3.50;;;16.20;92.90;;;;;;5048567;28;20105;-83
2021/05/29 17:09:26;;;;;;;3.00;2.63;;;16.00;93.10;;;;;;5033314;28;20068;-85
2021/05/29 17:16:38;;;;;;;4.72;2.63;;;16.00;94.20;;;;;;5049232;28;20570;-85